HRHO2: North Canadian River

                                SHEF ID:       HRHO2     North Canadian River near Harrah
STATION TYPE:
Regulating: Stage = 15.00, Flow = 8563

STAGE RIV-FLOW WTR-TEMP DIS-OXY PH CONDUCT BAT-LOAD
ft cfs F mg/l su umho/cm volt
Ccp-Rev Ccp-Rev Ccp-Rev Ccp-Rev Ccp-Rev Ccp-Rev Ccp-Rev
(America/Chicago)
02/07 00:00 3.32 138 52.99 9.47 7.92 979 12.06
02/07 01:00 3.32 138 52.34 9.40 7.90 980 12.04
02/07 02:00 3.32 138 51.73 9.36 7.87 979 12.03
02/07 03:00 3.33 139 51.15 9.31 7.85 979 12.01
02/07 04:00 3.34 141 50.54 9.27 7.84 986 12.00
02/07 05:00 3.34 141 49.89 9.30 7.84 999 11.98
02/07 06:00 3.35 143 49.32 9.37 7.85 1008 11.96
02/07 07:00 3.36 145 48.69 9.49 7.85 1010 11.95
02/07 08:00 3.37 147 48.43 9.82 7.87 1009 11.94
02/07 09:00 3.37 147 48.92 10.26 7.90 1002 11.98
02/07 10:00 3.37 147 50.29 10.82 7.94 987 12.27
02/07 11:00 3.37 147 52.25 11.29 7.97 969 12.65
02/07 12:00 3.36 145 54.45 11.67 8.01 959 12.86
02/07 13:00 3.36 145 56.52 12.01 8.06 953 12.90
02/07 14:00 3.36 145 58.17 12.29 8.12 949 12.98
02/07 15:00 3.36 145 59.16 12.16 8.16 942 12.97
02/07 16:00 3.36 145 59.16 12.35 8.21 935 13.09
02/07 17:00 3.36 145 58.55 11.83 8.20 932 13.09
02/07 18:00 3.35 143 57.65 11.48 8.19 936 12.84
02/07 19:00 3.35 143 56.79 10.94 8.15 938 12.48
02/07 20:00 3.34 141 55.99 10.57 8.11 939 12.27
02/07 21:00 3.33 139 55.31 10.21 8.06 937 12.11
02/07 22:00 3.33 139 54.64 10.01 8.02 937 12.04
02/07 23:00 3.32 138 54.36 9.92 8.00 936 12.05
Data processed at Sun 08Feb2026 05:25 GMT

NOTICE: If you are parsing this page

Please convert to using our Data API. Starting early 2026 we will be migrating to: https://water.usace.army.mil with modern pages rendered in JavaScript. When this migration completes you will no longer be able to scrape this page! CWMSDataAPI (CDA)

Timeseries IDs (TSIDs)

TSIDs used from left to right in the data table
HARR.Stage.Inst.1Hour.0.Ccp-Rev
HARR.Flow.Inst.1Hour.0.Ccp-Rev
HARR.Temp-Water.Inst.1Hour.0.Ccp-Rev
HARR.Conc-DO.Inst.1Hour.0.Ccp-Rev
HARR.pH.Inst.1Hour.0.Ccp-Rev
HARR.Cond-Water.Inst.1Hour.0.Ccp-Rev
HARR.Volt-Battery Load.Inst.1Hour.0.Ccp-Rev

                            

All information presented herein is the property of the government of the United States of America and may be revised or deleted at any time without prior notice. Dissemination of this information without the expressed written consent of the Public Affairs Office, Tulsa District U.S. Army Corps of Engineers is strictly prohibited. These data are gathered electronically and, as presented, have NOT undergone any form of quality control. These data are NOT guaranteed to be valid or correct.